sensor_id;sensor_type;location;lat;lon;timestamp;temperature;humidity
52321;DHT22;38261;54.090;13.382;2023-03-01T00:00:08;-0.30;99.90
52321;DHT22;38261;54.090;13.382;2023-03-01T00:01:31;-0.40;99.90
52321;DHT22;38261;54.090;13.382;2023-03-01T00:02:53;-0.40;99.90
52321;DHT22;38261;54.090;13.382;2023-03-01T00:04:16;-0.40;99.90
52321;DHT22;38261;54.090;13.382;2023-03-01T00:05:46;-0.40;99.90
52321;DHT22;38261;54.090;13.382;2023-03-01T00:07:08;-0.40;99.90
52321;DHT22;38261;54.090;13.382;2023-03-01T00:08:31;-0.40;99.90
52321;DHT22;38261;54.090;13.382;2023-03-01T00:09:54;-0.40;99.90
52321;DHT22;38261;54.090;13.382;2023-03-01T00:11:25;-0.40;99.90
52321;DHT22;38261;54.090;13.382;2023-03-01T00:12:47;-0.40;99.90
52321;DHT22;38261;54.090;13.382;2023-03-01T00:14:09;-0.40;99.90
52321;DHT22;38261;54.090;13.382;2023-03-01T00:15:32;-0.40;99.90
52321;DHT22;38261;54.090;13.382;2023-03-01T00:16:54;-0.40;99.90
52321;DHT22;38261;54.090;13.382;2023-03-01T00:18:16;-0.40;99.90
52321;DHT22;38261;54.090;13.382;2023-03-01T00:19:38;-0.40;99.90
52321;DHT22;38261;54.090;13.382;2023-03-01T00:21:00;-0.40;99.90
52321;DHT22;38261;54.090;13.382;2023-03-01T00:22:23;-0.40;99.90
52321;DHT22;38261;54.090;13.382;2023-03-01T00:23:45;-0.40;99.90
52321;DHT22;38261;54.090;13.382;2023-03-01T00:25:07;-0.40;99.90
52321;DHT22;38261;54.090;13.382;2023-03-01T00:26:29;-0.40;99.90
52321;DHT22;38261;54.090;13.382;2023-03-01T00:27:52;-0.50;99.90
52321;DHT22;38261;54.090;13.382;2023-03-01T00:29:14;-0.50;99.90
52321;DHT22;38261;54.090;13.382;2023-03-01T00:30:36;-0.50;99.90
52321;DHT22;38261;54.090;13.382;2023-03-01T00:31:59;-0.50;99.90
52321;DHT22;38261;54.090;13.382;2023-03-01T00:33:21;-0.50;99.90
52321;DHT22;38261;54.090;13.382;2023-03-01T00:34:43;-0.50;99.90
52321;DHT22;38261;54.090;13.382;2023-03-01T00:36:16;-0.50;99.90
52321;DHT22;38261;54.090;13.382;2023-03-01T00:37:38;-0.50;99.90
52321;DHT22;38261;54.090;13.382;2023-03-01T00:39:00;-0.50;99.90
52321;DHT22;38261;54.090;13.382;2023-03-01T00:40:29;-0.50;99.90
52321;DHT22;38261;54.090;13.382;2023-03-01T00:41:51;-0.50;99.90
52321;DHT22;38261;54.090;13.382;2023-03-01T00:43:13;-0.50;99.90
52321;DHT22;38261;54.090;13.382;2023-03-01T00:44:35;-0.50;99.90
52321;DHT22;38261;54.090;13.382;2023-03-01T00:46:01;-0.50;99.90
52321;DHT22;38261;54.090;13.382;2023-03-01T00:47:23;-0.50;99.90
52321;DHT22;38261;54.090;13.382;2023-03-01T00:48:45;-0.60;99.90
52321;DHT22;38261;54.090;13.382;2023-03-01T00:50:08;-0.60;99.90
52321;DHT22;38261;54.090;13.382;2023-03-01T00:51:31;-0.60;99.90
52321;DHT22;38261;54.090;13.382;2023-03-01T00:52:55;-0.60;99.90
52321;DHT22;38261;54.090;13.382;2023-03-01T00:54:17;-0.60;99.90
52321;DHT22;38261;54.090;13.382;2023-03-01T00:55:39;-0.60;99.90
52321;DHT22;38261;54.090;13.382;2023-03-01T00:57:01;-0.60;99.90
52321;DHT22;38261;54.090;13.382;2023-03-01T00:58:23;-0.60;99.90
52321;DHT22;38261;54.090;13.382;2023-03-01T00:59:45;-0.60;99.90
52321;DHT22;38261;54.090;13.382;2023-03-01T01:02:39;-0.70;99.90
52321;DHT22;38261;54.090;13.382;2023-03-01T01:04:04;-0.70;99.90
52321;DHT22;38261;54.090;13.382;2023-03-01T01:05:27;-0.70;99.90
52321;DHT22;38261;54.090;13.382;2023-03-01T01:06:49;-0.70;99.90
52321;DHT22;38261;54.090;13.382;2023-03-01T01:08:11;-0.70;99.90
52321;DHT22;38261;54.090;13.382;2023-03-01T01:09:33;-0.70;99.90
52321;DHT22;38261;54.090;13.382;2023-03-01T01:10:56;-0.70;99.90
52321;DHT22;38261;54.090;13.382;2023-03-01T01:12:18;-0.70;99.90
52321;DHT22;38261;54.090;13.382;2023-03-01T01:13:40;-0.70;99.90
52321;DHT22;38261;54.090;13.382;2023-03-01T01:15:03;-0.70;99.90
52321;DHT22;38261;54.090;13.382;2023-03-01T01:16:26;-0.70;99.90
52321;DHT22;38261;54.090;13.382;2023-03-01T01:17:49;-0.70;99.90
52321;DHT22;38261;54.090;13.382;2023-03-01T01:19:11;-0.70;99.90
52321;DHT22;38261;54.090;13.382;2023-03-01T01:20:35;-0.70;99.90
52321;DHT22;38261;54.090;13.382;2023-03-01T01:21:57;-0.70;99.90
52321;DHT22;38261;54.090;13.382;2023-03-01T01:23:19;-0.70;99.90
52321;DHT22;38261;54.090;13.382;2023-03-01T01:24:41;-0.80;99.90
52321;DHT22;38261;54.090;13.382;2023-03-01T01:26:26;-0.80;99.90
52321;DHT22;38261;54.090;13.382;2023-03-01T01:27:48;-0.80;99.90
52321;DHT22;38261;54.090;13.382;2023-03-01T01:29:11;-0.80;99.90
52321;DHT22;38261;54.090;13.382;2023-03-01T01:30:33;-0.80;99.90
52321;DHT22;38261;54.090;13.382;2023-03-01T01:31:55;-0.80;99.90
52321;DHT22;38261;54.090;13.382;2023-03-01T01:33:17;-0.80;99.90
52321;DHT22;38261;54.090;13.382;2023-03-01T01:34:39;-0.80;99.90
52321;DHT22;38261;54.090;13.382;2023-03-01T01:36:02;-0.80;99.90
52321;DHT22;38261;54.090;13.382;2023-03-01T01:37:24;-0.80;99.90
52321;DHT22;38261;54.090;13.382;2023-03-01T01:38:53;-0.80;99.90
52321;DHT22;38261;54.090;13.382;2023-03-01T01:40:15;-0.80;99.90
52321;DHT22;38261;54.090;13.382;2023-03-01T01:41:37;-0.80;99.90
52321;DHT22;38261;54.090;13.382;2023-03-01T01:43:00;-0.80;99.90
52321;DHT22;38261;54.090;13.382;2023-03-01T01:44:24;-0.80;99.90
52321;DHT22;38261;54.090;13.382;2023-03-01T01:45:47;-0.80;99.90
52321;DHT22;38261;54.090;13.382;2023-03-01T01:47:16;-0.80;99.90
52321;DHT22;38261;54.090;13.382;2023-03-01T01:48:43;-0.80;99.90
52321;DHT22;38261;54.090;13.382;2023-03-01T01:50:09;-0.80;99.90
52321;DHT22;38261;54.090;13.382;2023-03-01T01:51:39;-0.80;99.90
52321;DHT22;38261;54.090;13.382;2023-03-01T01:53:02;-0.80;99.90
52321;DHT22;38261;54.090;13.382;2023-03-01T01:54:42;-0.80;99.90
52321;DHT22;38261;54.090;13.382;2023-03-01T01:56:07;-0.80;99.90
52321;DHT22;38261;54.090;13.382;2023-03-01T01:58:58;-0.80;99.90
52321;DHT22;38261;54.090;13.382;2023-03-01T02:00:23;-0.80;99.90
52321;DHT22;38261;54.090;13.382;2023-03-01T02:01:45;-0.80;99.90
52321;DHT22;38261;54.090;13.382;2023-03-01T02:03:13;-0.80;99.90
52321;DHT22;38261;54.090;13.382;2023-03-01T02:04:39;-0.70;99.90
52321;DHT22;38261;54.090;13.382;2023-03-01T02:06:12;-0.70;99.90
52321;DHT22;38261;54.090;13.382;2023-03-01T02:07:35;-0.70;99.90
52321;DHT22;38261;54.090;13.382;2023-03-01T02:09:03;-0.70;99.90
52321;DHT22;38261;54.090;13.382;2023-03-01T02:10:28;-0.70;99.90
52321;DHT22;38261;54.090;13.382;2023-03-01T02:11:51;-0.70;99.90
52321;DHT22;38261;54.090;13.382;2023-03-01T02:13:13;-0.70;99.90
52321;DHT22;38261;54.090;13.382;2023-03-01T02:14:36;-0.70;99.90
52321;DHT22;38261;54.090;13.382;2023-03-01T02:15:58;-0.70;99.90
52321;DHT22;38261;54.090;13.382;2023-03-01T02:17:21;-0.70;99.90
52321;DHT22;38261;54.090;13.382;2023-03-01T02:18:43;-0.70;99.90
52321;DHT22;38261;54.090;13.382;2023-03-01T02:20:16;-0.70;99.90
52321;DHT22;38261;54.090;13.382;2023-03-01T02:22:03;-0.70;99.90
52321;DHT22;38261;54.090;13.382;2023-03-01T02:23:28;-0.80;99.90
52321;DHT22;38261;54.090;13.382;2023-03-01T02:26:40;-0.80;99.90
52321;DHT22;38261;54.090;13.382;2023-03-01T02:29:38;-0.80;99.90
52321;DHT22;38261;54.090;13.382;2023-03-01T02:31:01;-0.90;99.90
52321;DHT22;38261;54.090;13.382;2023-03-01T02:32:42;-0.90;99.90
52321;DHT22;38261;54.090;13.382;2023-03-01T02:34:05;-0.90;99.90
52321;DHT22;38261;54.090;13.382;2023-03-01T02:35:37;-0.80;99.90
52321;DHT22;38261;54.090;13.382;2023-03-01T02:37:13;-0.90;99.90
52321;DHT22;38261;54.090;13.382;2023-03-01T02:38:36;-0.90;99.90
52321;DHT22;38261;54.090;13.382;2023-03-01T02:40:00;-0.90;99.90
52321;DHT22;38261;54.090;13.382;2023-03-01T02:41:26;-0.90;99.90
52321;DHT22;38261;54.090;13.382;2023-03-01T02:42:54;-0.90;99.90
52321;DHT22;38261;54.090;13.382;2023-03-01T02:44:17;-0.90;99.90
52321;DHT22;38261;54.090;13.382;2023-03-01T02:45:48;-0.90;99.90
52321;DHT22;38261;54.090;13.382;2023-03-01T02:47:11;-0.90;99.90
52321;DHT22;38261;54.090;13.382;2023-03-01T02:48:41;-0.90;99.90
52321;DHT22;38261;54.090;13.382;2023-03-01T02:50:25;-0.80;99.90
52321;DHT22;38261;54.090;13.382;2023-03-01T02:54:01;-0.80;99.90
52321;DHT22;38261;54.090;13.382;2023-03-01T02:55:27;-0.80;99.90
52321;DHT22;38261;54.090;13.382;2023-03-01T02:56:50;-0.80;99.90
52321;DHT22;38261;54.090;13.382;2023-03-01T02:58:12;-0.90;99.90
52321;DHT22;38261;54.090;13.382;2023-03-01T02:59:35;-0.90;99.90
52321;DHT22;38261;54.090;13.382;2023-03-01T03:01:01;-0.90;99.90
52321;DHT22;38261;54.090;13.382;2023-03-01T03:02:26;-0.90;99.90
52321;DHT22;38261;54.090;13.382;2023-03-01T03:04:00;-0.80;99.90
52321;DHT22;38261;54.090;13.382;2023-03-01T03:05:26;-0.80;99.90
52321;DHT22;38261;54.090;13.382;2023-03-01T03:06:49;-0.80;99.90
52321;DHT22;38261;54.090;13.382;2023-03-01T03:08:12;-0.80;99.90
52321;DHT22;38261;54.090;13.382;2023-03-01T03:09:34;-0.80;99.90
52321;DHT22;38261;54.090;13.382;2023-03-01T03:10:56;-0.80;99.90
52321;DHT22;38261;54.090;13.382;2023-03-01T03:12:18;-0.80;99.90
52321;DHT22;38261;54.090;13.382;2023-03-01T03:13:40;-0.80;99.90
52321;DHT22;38261;54.090;13.382;2023-03-01T03:15:10;-0.80;99.90
52321;DHT22;38261;54.090;13.382;2023-03-01T03:16:34;-0.80;99.90
52321;DHT22;38261;54.090;13.382;2023-03-01T03:17:58;-0.80;99.90
52321;DHT22;38261;54.090;13.382;2023-03-01T03:19:20;-0.80;99.90
52321;DHT22;38261;54.090;13.382;2023-03-01T03:20:43;-0.80;99.90
52321;DHT22;38261;54.090;13.382;2023-03-01T03:22:05;-0.80;99.90
52321;DHT22;38261;54.090;13.382;2023-03-01T03:23:27;-0.80;99.90
52321;DHT22;38261;54.090;13.382;2023-03-01T03:24:51;-0.80;99.90
52321;DHT22;38261;54.090;13.382;2023-03-01T03:26:13;-0.80;99.90
52321;DHT22;38261;54.090;13.382;2023-03-01T03:27:37;-0.80;99.90
52321;DHT22;38261;54.090;13.382;2023-03-01T03:29:00;-0.80;99.90
52321;DHT22;38261;54.090;13.382;2023-03-01T03:30:24;-0.80;99.90
52321;DHT22;38261;54.090;13.382;2023-03-01T03:31:47;-0.80;99.90
52321;DHT22;38261;54.090;13.382;2023-03-01T03:33:12;-0.90;99.90
52321;DHT22;38261;54.090;13.382;2023-03-01T03:34:35;-0.90;99.90
52321;DHT22;38261;54.090;13.382;2023-03-01T03:35:57;-0.90;99.90
52321;DHT22;38261;54.090;13.382;2023-03-01T03:37:20;-0.90;99.90
52321;DHT22;38261;54.090;13.382;2023-03-01T03:39:00;-0.90;99.90
52321;DHT22;38261;54.090;13.382;2023-03-01T03:40:22;-0.90;99.90
52321;DHT22;38261;54.090;13.382;2023-03-01T03:41:44;-0.90;99.90
52321;DHT22;38261;54.090;13.382;2023-03-01T03:43:10;-1.00;99.90
52321;DHT22;38261;54.090;13.382;2023-03-01T03:44:32;-0.90;99.90
52321;DHT22;38261;54.090;13.382;2023-03-01T03:45:54;-0.90;99.90
52321;DHT22;38261;54.090;13.382;2023-03-01T03:47:19;-1.00;99.90
52321;DHT22;38261;54.090;13.382;2023-03-01T03:48:43;-1.00;99.90
52321;DHT22;38261;54.090;13.382;2023-03-01T03:50:06;-1.00;99.90
52321;DHT22;38261;54.090;13.382;2023-03-01T03:51:28;-1.00;99.90
52321;DHT22;38261;54.090;13.382;2023-03-01T03:52:50;-1.00;99.90
52321;DHT22;38261;54.090;13.382;2023-03-01T03:54:12;-1.00;99.90
52321;DHT22;38261;54.090;13.382;2023-03-01T03:55:35;-1.00;99.90
52321;DHT22;38261;54.090;13.382;2023-03-01T03:57:00;-1.00;99.90
52321;DHT22;38261;54.090;13.382;2023-03-01T03:58:24;-1.00;99.90
52321;DHT22;38261;54.090;13.382;2023-03-01T03:59:46;-1.00;99.90
52321;DHT22;38261;54.090;13.382;2023-03-01T04:01:08;-1.00;99.90
52321;DHT22;38261;54.090;13.382;2023-03-01T04:02:30;-1.00;99.90
52321;DHT22;38261;54.090;13.382;2023-03-01T04:03:52;-1.10;99.90
52321;DHT22;38261;54.090;13.382;2023-03-01T04:05:17;-1.10;99.90
52321;DHT22;38261;54.090;13.382;2023-03-01T04:06:40;-1.00;99.90
52321;DHT22;38261;54.090;13.382;2023-03-01T04:08:03;-1.00;99.90
52321;DHT22;38261;54.090;13.382;2023-03-01T04:09:25;-1.00;99.90
52321;DHT22;38261;54.090;13.382;2023-03-01T04:10:50;-1.00;99.90
52321;DHT22;38261;54.090;13.382;2023-03-01T04:12:12;-1.00;99.90
52321;DHT22;38261;54.090;13.382;2023-03-01T04:13:34;-1.00;99.90
52321;DHT22;38261;54.090;13.382;2023-03-01T04:14:56;-1.00;99.90
52321;DHT22;38261;54.090;13.382;2023-03-01T04:16:18;-1.00;99.90
52321;DHT22;38261;54.090;13.382;2023-03-01T04:17:46;-1.10;99.90
52321;DHT22;38261;54.090;13.382;2023-03-01T04:19:08;-1.10;99.90
52321;DHT22;38261;54.090;13.382;2023-03-01T04:20:33;-1.10;99.90
52321;DHT22;38261;54.090;13.382;2023-03-01T04:21:56;-1.10;99.90
52321;DHT22;38261;54.090;13.382;2023-03-01T04:23:20;-1.10;99.90
52321;DHT22;38261;54.090;13.382;2023-03-01T04:24:42;-1.10;99.90
52321;DHT22;38261;54.090;13.382;2023-03-01T04:26:05;-1.10;99.90
52321;DHT22;38261;54.090;13.382;2023-03-01T04:27:27;-1.10;99.90
52321;DHT22;38261;54.090;13.382;2023-03-01T04:28:49;-1.10;99.90
52321;DHT22;38261;54.090;13.382;2023-03-01T04:30:12;-1.10;99.90
52321;DHT22;38261;54.090;13.382;2023-03-01T04:31:35;-1.10;99.90
52321;DHT22;38261;54.090;13.382;2023-03-01T04:32:57;-1.10;99.90
52321;DHT22;38261;54.090;13.382;2023-03-01T04:34:19;-1.10;99.90
52321;DHT22;38261;54.090;13.382;2023-03-01T04:35:41;-1.20;99.90
52321;DHT22;38261;54.090;13.382;2023-03-01T04:37:03;-1.20;99.90
52321;DHT22;38261;54.090;13.382;2023-03-01T04:38:25;-1.20;99.90
52321;DHT22;38261;54.090;13.382;2023-03-01T04:39:47;-1.20;99.90
52321;DHT22;38261;54.090;13.382;2023-03-01T04:41:10;-1.20;99.90
52321;DHT22;38261;54.090;13.382;2023-03-01T04:42:32;-1.20;99.90
52321;DHT22;38261;54.090;13.382;2023-03-01T04:43:54;-1.20;99.90
52321;DHT22;38261;54.090;13.382;2023-03-01T04:45:17;-1.20;99.90
52321;DHT22;38261;54.090;13.382;2023-03-01T04:46:39;-1.20;99.90
52321;DHT22;38261;54.090;13.382;2023-03-01T04:48:01;-1.20;99.90
52321;DHT22;38261;54.090;13.382;2023-03-01T04:49:23;-1.20;99.90
52321;DHT22;38261;54.090;13.382;2023-03-01T04:50:45;-1.20;99.90
52321;DHT22;38261;54.090;13.382;2023-03-01T04:52:07;-1.30;99.90
52321;DHT22;38261;54.090;13.382;2023-03-01T04:53:31;-1.30;99.90
52321;DHT22;38261;54.090;13.382;2023-03-01T04:54:54;-1.30;99.90
52321;DHT22;38261;54.090;13.382;2023-03-01T04:56:16;-1.30;99.90
52321;DHT22;38261;54.090;13.382;2023-03-01T04:57:41;-1.30;99.90
52321;DHT22;38261;54.090;13.382;2023-03-01T04:59:03;-1.30;99.90
52321;DHT22;38261;54.090;13.382;2023-03-01T05:00:27;-1.30;99.90
52321;DHT22;38261;54.090;13.382;2023-03-01T05:01:50;-1.30;99.90
52321;DHT22;38261;54.090;13.382;2023-03-01T05:03:12;-1.30;99.90
52321;DHT22;38261;54.090;13.382;2023-03-01T05:04:39;-1.30;99.90
52321;DHT22;38261;54.090;13.382;2023-03-01T05:06:02;-1.30;99.90
52321;DHT22;38261;54.090;13.382;2023-03-01T05:07:24;-1.30;99.90
52321;DHT22;38261;54.090;13.382;2023-03-01T05:08:46;-1.30;99.90
52321;DHT22;38261;54.090;13.382;2023-03-01T05:10:09;-1.30;99.90
52321;DHT22;38261;54.090;13.382;2023-03-01T05:11:31;-1.30;99.90
52321;DHT22;38261;54.090;13.382;2023-03-01T05:12:58;-1.30;99.90
52321;DHT22;38261;54.090;13.382;2023-03-01T05:14:20;-1.30;99.90
52321;DHT22;38261;54.090;13.382;2023-03-01T05:15:43;-1.30;99.90
52321;DHT22;38261;54.090;13.382;2023-03-01T05:17:06;-1.30;99.90
52321;DHT22;38261;54.090;13.382;2023-03-01T05:18:30;-1.30;99.90
52321;DHT22;38261;54.090;13.382;2023-03-01T05:19:52;-1.30;99.90
52321;DHT22;38261;54.090;13.382;2023-03-01T05:21:16;-1.30;99.90
52321;DHT22;38261;54.090;13.382;2023-03-01T05:22:39;-1.30;99.90
52321;DHT22;38261;54.090;13.382;2023-03-01T05:24:01;-1.30;99.90
52321;DHT22;38261;54.090;13.382;2023-03-01T05:25:24;-1.30;99.90
52321;DHT22;38261;54.090;13.382;2023-03-01T05:26:46;-1.30;99.90
52321;DHT22;38261;54.090;13.382;2023-03-01T05:28:11;-1.30;99.90
52321;DHT22;38261;54.090;13.382;2023-03-01T05:29:33;-1.20;99.90
52321;DHT22;38261;54.090;13.382;2023-03-01T05:30:57;-1.20;99.90
52321;DHT22;38261;54.090;13.382;2023-03-01T05:32:19;-1.20;99.90
52321;DHT22;38261;54.090;13.382;2023-03-01T05:33:42;-1.20;99.90
52321;DHT22;38261;54.090;13.382;2023-03-01T05:35:05;-1.20;99.90
52321;DHT22;38261;54.090;13.382;2023-03-01T05:36:27;-1.20;99.90
52321;DHT22;38261;54.090;13.382;2023-03-01T05:37:50;-1.20;99.90
52321;DHT22;38261;54.090;13.382;2023-03-01T05:39:13;-1.20;99.90
52321;DHT22;38261;54.090;13.382;2023-03-01T05:40:35;-1.30;99.90
52321;DHT22;38261;54.090;13.382;2023-03-01T05:41:59;-1.30;99.90
52321;DHT22;38261;54.090;13.382;2023-03-01T05:43:22;-1.30;99.90
52321;DHT22;38261;54.090;13.382;2023-03-01T05:44:44;-1.30;99.90
52321;DHT22;38261;54.090;13.382;2023-03-01T05:46:07;-1.30;99.90
52321;DHT22;38261;54.090;13.382;2023-03-01T05:47:33;-1.30;99.90
52321;DHT22;38261;54.090;13.382;2023-03-01T05:48:56;-1.20;99.90
52321;DHT22;38261;54.090;13.382;2023-03-01T05:50:21;-1.20;99.90
52321;DHT22;38261;54.090;13.382;2023-03-01T05:51:48;-1.20;99.90
52321;DHT22;38261;54.090;13.382;2023-03-01T05:53:14;-1.20;99.90
52321;DHT22;38261;54.090;13.382;2023-03-01T05:54:36;-1.20;99.90
52321;DHT22;38261;54.090;13.382;2023-03-01T05:55:58;-1.20;99.90
52321;DHT22;38261;54.090;13.382;2023-03-01T05:57:20;-1.20;99.90
52321;DHT22;38261;54.090;13.382;2023-03-01T05:58:42;-1.20;99.90
52321;DHT22;38261;54.090;13.382;2023-03-01T06:00:05;-1.20;99.90
52321;DHT22;38261;54.090;13.382;2023-03-01T06:01:28;-1.20;99.90
52321;DHT22;38261;54.090;13.382;2023-03-01T06:02:51;-1.20;99.90
52321;DHT22;38261;54.090;13.382;2023-03-01T06:04:15;-1.20;99.90
52321;DHT22;38261;54.090;13.382;2023-03-01T06:05:38;-1.20;99.90
52321;DHT22;38261;54.090;13.382;2023-03-01T06:07:01;-1.20;99.90
52321;DHT22;38261;54.090;13.382;2023-03-01T06:08:23;-1.20;99.90
52321;DHT22;38261;54.090;13.382;2023-03-01T06:09:46;-1.20;99.90
52321;DHT22;38261;54.090;13.382;2023-03-01T06:11:08;-1.10;99.90
52321;DHT22;38261;54.090;13.382;2023-03-01T06:12:35;-1.10;99.90
52321;DHT22;38261;54.090;13.382;2023-03-01T06:13:57;-1.10;99.90
52321;DHT22;38261;54.090;13.382;2023-03-01T06:15:20;-1.00;99.90
52321;DHT22;38261;54.090;13.382;2023-03-01T06:16:42;-1.00;99.90
52321;DHT22;38261;54.090;13.382;2023-03-01T06:18:04;-1.00;99.90
52321;DHT22;38261;54.090;13.382;2023-03-01T06:19:26;-1.00;99.90
52321;DHT22;38261;54.090;13.382;2023-03-01T06:20:57;-0.90;99.90
52321;DHT22;38261;54.090;13.382;2023-03-01T06:22:19;-0.90;99.90
52321;DHT22;38261;54.090;13.382;2023-03-01T06:23:41;-0.90;99.90
52321;DHT22;38261;54.090;13.382;2023-03-01T06:25:04;-0.80;99.90
52321;DHT22;38261;54.090;13.382;2023-03-01T06:26:26;-0.80;99.90
52321;DHT22;38261;54.090;13.382;2023-03-01T06:27:49;-0.80;99.90
52321;DHT22;38261;54.090;13.382;2023-03-01T06:29:11;-0.70;99.90
52321;DHT22;38261;54.090;13.382;2023-03-01T06:30:33;-0.70;99.90
52321;DHT22;38261;54.090;13.382;2023-03-01T06:31:55;-0.70;99.90
52321;DHT22;38261;54.090;13.382;2023-03-01T06:33:18;-0.70;99.90
52321;DHT22;38261;54.090;13.382;2023-03-01T06:34:41;-0.60;99.90
52321;DHT22;38261;54.090;13.382;2023-03-01T06:36:04;-0.60;99.90
52321;DHT22;38261;54.090;13.382;2023-03-01T06:37:26;-0.60;99.90
52321;DHT22;38261;54.090;13.382;2023-03-01T06:38:48;-0.50;99.90
52321;DHT22;38261;54.090;13.382;2023-03-01T06:40:11;-0.50;99.90
52321;DHT22;38261;54.090;13.382;2023-03-01T06:41:33;-0.50;99.90
52321;DHT22;38261;54.090;13.382;2023-03-01T06:42:55;-0.40;99.90
52321;DHT22;38261;54.090;13.382;2023-03-01T06:44:17;-0.40;99.90
52321;DHT22;38261;54.090;13.382;2023-03-01T06:45:39;-0.30;99.90
52321;DHT22;38261;54.090;13.382;2023-03-01T06:47:02;-0.30;99.90
52321;DHT22;38261;54.090;13.382;2023-03-01T06:48:25;-0.30;99.90
52321;DHT22;38261;54.090;13.382;2023-03-01T06:49:47;-0.20;99.90
52321;DHT22;38261;54.090;13.382;2023-03-01T06:51:09;-0.20;99.90
52321;DHT22;38261;54.090;13.382;2023-03-01T06:52:31;-0.10;99.90
52321;DHT22;38261;54.090;13.382;2023-03-01T06:53:53;0.00;99.90
52321;DHT22;38261;54.090;13.382;2023-03-01T06:55:15;0.00;99.90
52321;DHT22;38261;54.090;13.382;2023-03-01T06:56:37;0.00;99.90
52321;DHT22;38261;54.090;13.382;2023-03-01T06:58:01;0.10;99.90
52321;DHT22;38261;54.090;13.382;2023-03-01T06:59:23;0.10;99.90
52321;DHT22;38261;54.090;13.382;2023-03-01T07:00:45;0.10;99.90
52321;DHT22;38261;54.090;13.382;2023-03-01T07:02:10;0.20;99.90
52321;DHT22;38261;54.090;13.382;2023-03-01T07:03:33;0.20;99.90
52321;DHT22;38261;54.090;13.382;2023-03-01T07:04:55;0.30;99.90
52321;DHT22;38261;54.090;13.382;2023-03-01T07:06:17;0.30;99.90
52321;DHT22;38261;54.090;13.382;2023-03-01T07:07:39;0.40;99.90
52321;DHT22;38261;54.090;13.382;2023-03-01T07:09:02;0.40;99.90
52321;DHT22;38261;54.090;13.382;2023-03-01T07:10:24;0.50;99.90
52321;DHT22;38261;54.090;13.382;2023-03-01T07:11:46;0.50;99.90
52321;DHT22;38261;54.090;13.382;2023-03-01T07:13:08;0.60;99.90
52321;DHT22;38261;54.090;13.382;2023-03-01T07:14:30;0.60;99.90
52321;DHT22;38261;54.090;13.382;2023-03-01T07:15:52;0.60;99.90
52321;DHT22;38261;54.090;13.382;2023-03-01T07:17:15;0.60;99.90
52321;DHT22;38261;54.090;13.382;2023-03-01T07:18:37;0.70;99.90
52321;DHT22;38261;54.090;13.382;2023-03-01T07:19:59;0.70;99.90
52321;DHT22;38261;54.090;13.382;2023-03-01T07:21:21;0.80;99.90
52321;DHT22;38261;54.090;13.382;2023-03-01T07:22:43;0.90;99.90
52321;DHT22;38261;54.090;13.382;2023-03-01T07:24:06;0.90;99.90
52321;DHT22;38261;54.090;13.382;2023-03-01T07:25:29;1.00;99.90
52321;DHT22;38261;54.090;13.382;2023-03-01T07:26:51;1.00;99.90
52321;DHT22;38261;54.090;13.382;2023-03-01T07:28:15;1.00;99.90
52321;DHT22;38261;54.090;13.382;2023-03-01T07:29:37;1.10;99.90
52321;DHT22;38261;54.090;13.382;2023-03-01T07:31:02;1.20;99.90
52321;DHT22;38261;54.090;13.382;2023-03-01T07:32:25;1.30;99.90
52321;DHT22;38261;54.090;13.382;2023-03-01T07:33:47;1.30;99.90
52321;DHT22;38261;54.090;13.382;2023-03-01T07:35:09;1.40;99.90
52321;DHT22;38261;54.090;13.382;2023-03-01T07:36:31;1.40;99.90
52321;DHT22;38261;54.090;13.382;2023-03-01T07:37:53;1.40;99.90
52321;DHT22;38261;54.090;13.382;2023-03-01T07:39:16;1.50;99.90
52321;DHT22;38261;54.090;13.382;2023-03-01T07:40:40;1.50;99.90
52321;DHT22;38261;54.090;13.382;2023-03-01T07:42:02;1.50;99.90
52321;DHT22;38261;54.090;13.382;2023-03-01T07:43:24;1.50;99.90
52321;DHT22;38261;54.090;13.382;2023-03-01T07:44:46;1.60;99.90
52321;DHT22;38261;54.090;13.382;2023-03-01T07:46:09;1.60;99.90
52321;DHT22;38261;54.090;13.382;2023-03-01T07:47:31;1.70;99.90
52321;DHT22;38261;54.090;13.382;2023-03-01T07:48:54;1.70;99.90
52321;DHT22;38261;54.090;13.382;2023-03-01T07:50:16;1.80;99.90
52321;DHT22;38261;54.090;13.382;2023-03-01T07:51:38;2.00;99.90
52321;DHT22;38261;54.090;13.382;2023-03-01T07:53:00;2.00;99.90
52321;DHT22;38261;54.090;13.382;2023-03-01T07:54:22;2.00;99.90
52321;DHT22;38261;54.090;13.382;2023-03-01T07:55:44;2.10;99.90
52321;DHT22;38261;54.090;13.382;2023-03-01T07:57:06;2.20;99.90
52321;DHT22;38261;54.090;13.382;2023-03-01T07:58:29;2.20;99.90
52321;DHT22;38261;54.090;13.382;2023-03-01T07:59:51;2.20;99.90
52321;DHT22;38261;54.090;13.382;2023-03-01T08:01:15;2.20;99.90
52321;DHT22;38261;54.090;13.382;2023-03-01T08:02:38;2.20;99.90
52321;DHT22;38261;54.090;13.382;2023-03-01T08:04:02;2.20;99.90
52321;DHT22;38261;54.090;13.382;2023-03-01T08:05:24;2.20;99.90
52321;DHT22;38261;54.090;13.382;2023-03-01T08:06:46;2.20;99.90
52321;DHT22;38261;54.090;13.382;2023-03-01T08:08:08;2.20;99.90
52321;DHT22;38261;54.090;13.382;2023-03-01T08:09:30;2.20;99.90
52321;DHT22;38261;54.090;13.382;2023-03-01T08:10:55;2.30;99.90
52321;DHT22;38261;54.090;13.382;2023-03-01T08:12:18;2.40;99.90
52321;DHT22;38261;54.090;13.382;2023-03-01T08:13:41;2.50;99.90
52321;DHT22;38261;54.090;13.382;2023-03-01T08:15:03;2.70;99.90
52321;DHT22;38261;54.090;13.382;2023-03-01T08:16:25;2.80;99.90
52321;DHT22;38261;54.090;13.382;2023-03-01T08:17:49;2.90;99.90
52321;DHT22;38261;54.090;13.382;2023-03-01T08:19:15;3.00;99.90
52321;DHT22;38261;54.090;13.382;2023-03-01T08:20:37;3.20;99.90
52321;DHT22;38261;54.090;13.382;2023-03-01T08:21:59;3.30;99.90
52321;DHT22;38261;54.090;13.382;2023-03-01T08:23:21;3.30;99.90
52321;DHT22;38261;54.090;13.382;2023-03-01T08:24:43;3.40;99.90
52321;DHT22;38261;54.090;13.382;2023-03-01T08:27:33;3.40;99.90
52321;DHT22;38261;54.090;13.382;2023-03-01T08:28:56;3.50;99.90
52321;DHT22;38261;54.090;13.382;2023-03-01T08:30:18;3.50;99.90
52321;DHT22;38261;54.090;13.382;2023-03-01T08:31:40;3.60;99.90
52321;DHT22;38261;54.090;13.382;2023-03-01T08:33:02;3.70;99.90
52321;DHT22;38261;54.090;13.382;2023-03-01T08:34:25;3.80;99.90
52321;DHT22;38261;54.090;13.382;2023-03-01T08:35:47;3.80;99.90
52321;DHT22;38261;54.090;13.382;2023-03-01T08:37:09;3.80;99.90
52321;DHT22;38261;54.090;13.382;2023-03-01T08:38:33;3.70;99.90
52321;DHT22;38261;54.090;13.382;2023-03-01T08:39:55;3.70;99.90
52321;DHT22;38261;54.090;13.382;2023-03-01T08:41:17;3.50;99.90
52321;DHT22;38261;54.090;13.382;2023-03-01T08:42:41;3.50;99.90
52321;DHT22;38261;54.090;13.382;2023-03-01T08:44:07;3.50;99.90
52321;DHT22;38261;54.090;13.382;2023-03-01T08:45:29;3.60;99.90
52321;DHT22;38261;54.090;13.382;2023-03-01T08:46:51;3.60;99.90
52321;DHT22;38261;54.090;13.382;2023-03-01T08:48:14;3.60;99.90
52321;DHT22;38261;54.090;13.382;2023-03-01T08:49:37;3.70;99.90
52321;DHT22;38261;54.090;13.382;2023-03-01T08:51:14;3.70;99.90